Time;durP1;ratioP1;P1;durP2;ratioP2;P2;SDS_P1;SDS_P2;PMS_P1;PMS_P2;Temp;Humidity;BMP_temperature;BMP_pressure;BME280_temperature;BME280_humidity;BME280_pressure;Samples;Min_cycle;Max_cycle;Signal;HPM_P1;HPM_P2
2022/05/02 00:01:02;;;;;;;14.13;6.43;;;;;;;;;;4994010;28;94458;-66
2022/05/02 00:03:28;;;;;;;6.72;5.97;;;;;;;;;;4996645;28;92735;-66
2022/05/02 00:05:56;;;;;;;9.73;6.60;;;;;;;;;;4991761;28;96854;-66
2022/05/02 00:08:22;;;;;;;9.02;6.20;;;;;;;;;;4993744;28;92465;-66
2022/05/02 00:10:48;;;;;;;11.35;6.30;;;;;;;;;;4992738;28;94236;-66
2022/05/02 00:13:15;;;;;;;8.18;6.32;;;;;;;;;;4993489;28;93146;-66
2022/05/02 00:15:41;;;;;;;8.77;6.95;;;;;;;;;;4993510;28;92480;-66
2022/05/02 00:18:08;;;;;;;11.48;6.70;;;;;;;;;;4993441;28;93174;-66
2022/05/02 00:20:36;;;;;;;9.90;6.57;;;;;;;;;;4998861;28;93434;-66
2022/05/02 00:23:04;;;;;;;9.10;6.60;;;;;;;;;;5014179;28;91813;-66
2022/05/02 00:25:30;;;;;;;7.45;6.68;;;;;;;;;;5015660;28;93711;-66
2022/05/02 00:27:57;;;;;;;12.38;6.53;;;;;;;;;;5013319;28;92795;-66
2022/05/02 00:30:24;;;;;;;13.10;6.40;;;;;;;;;;4998813;28;94910;-66
2022/05/02 00:32:50;;;;;;;7.53;6.43;;;;;;;;;;4993350;28;93587;-66
2022/05/02 00:35:17;;;;;;;9.60;6.78;;;;;;;;;;4993773;28;92438;-66
2022/05/02 00:37:43;;;;;;;9.82;6.47;;;;;;;;;;4993740;28;93195;-66
2022/05/02 00:40:11;;;;;;;11.25;6.53;;;;;;;;;;4997002;28;94703;-66
2022/05/02 00:42:38;;;;;;;10.40;6.88;;;;;;;;;;4996725;28;92436;-66
2022/05/02 00:45:08;;;;;;;10.93;6.55;;;;;;;;;;4996711;28;93497;-66
2022/05/02 00:47:35;;;;;;;12.10;6.40;;;;;;;;;;4999931;28;92986;-66
2022/05/02 00:50:02;;;;;;;8.27;6.47;;;;;;;;;;4996788;28;92371;-66
2022/05/02 00:52:29;;;;;;;12.52;6.50;;;;;;;;;;4996456;28;94287;-66
2022/05/02 00:54:55;;;;;;;10.27;6.75;;;;;;;;;;4994745;28;94825;-66
2022/05/02 00:57:22;;;;;;;9.40;6.97;;;;;;;;;;4996113;28;95607;-65
2022/05/02 00:59:48;;;;;;;8.63;6.43;;;;;;;;;;4996429;28;94520;-67
2022/05/02 01:02:15;;;;;;;8.60;6.57;;;;;;;;;;4996377;28;92410;-66
2022/05/02 01:04:42;;;;;;;13.23;7.05;;;;;;;;;;4996573;28;93098;-65
2022/05/02 01:07:09;;;;;;;10.80;6.55;;;;;;;;;;4995873;28;93677;-66
2022/05/02 01:09:38;;;;;;;13.18;7.22;;;;;;;;;;4999272;28;92471;-65
2022/05/02 01:12:11;;;;;;;12.13;7.63;;;;;;;;;;4996542;28;91673;-66
2022/05/02 01:14:38;;;;;;;10.20;6.50;;;;;;;;;;4996286;28;92427;-66
2022/05/02 01:17:05;;;;;;;13.15;7.43;;;;;;;;;;4995686;28;92438;-66
2022/05/02 01:19:31;;;;;;;9.65;7.18;;;;;;;;;;4994524;28;96007;-66
2022/05/02 01:21:57;;;;;;;13.20;7.30;;;;;;;;;;5013118;28;92468;-66
2022/05/02 01:24:32;;;;;;;10.70;7.43;;;;;;;;;;5015712;28;93211;-66
2022/05/02 01:27:00;;;;;;;9.07;6.90;;;;;;;;;;5015820;28;94767;-66
2022/05/02 01:29:26;;;;;;;13.98;7.80;;;;;;;;;;5016130;28;92429;-66
2022/05/02 01:31:54;;;;;;;15.68;7.30;;;;;;;;;;5019111;28;94239;-66
2022/05/02 01:34:20;;;;;;;8.50;7.13;;;;;;;;;;5015884;28;92441;-66
2022/05/02 01:36:47;;;;;;;13.55;7.45;;;;;;;;;;5015473;28;91915;-66
2022/05/02 01:39:13;;;;;;;9.43;7.30;;;;;;;;;;5015703;28;94241;-65
2022/05/02 01:41:39;;;;;;;15.05;7.20;;;;;;;;;;5015483;28;92454;-66
2022/05/02 01:44:06;;;;;;;11.85;7.53;;;;;;;;;;5029817;28;94824;-65
2022/05/02 01:46:32;;;;;;;15.80;7.47;;;;;;;;;;5000532;28;93276;-65
2022/05/02 01:48:58;;;;;;;12.75;7.72;;;;;;;;;;4994888;28;92427;-65
2022/05/02 01:51:25;;;;;;;13.90;7.88;;;;;;;;;;4998055;28;94400;-66
2022/05/02 01:53:51;;;;;;;11.85;7.32;;;;;;;;;;4995862;28;92534;-65
2022/05/02 01:56:17;;;;;;;11.07;7.13;;;;;;;;;;4995666;28;94282;-65
2022/05/02 01:58:43;;;;;;;11.90;7.38;;;;;;;;;;4995447;28;94329;-66
2022/05/02 02:01:10;;;;;;;7.40;6.45;;;;;;;;;;4996026;28;91726;-66
2022/05/02 02:03:36;;;;;;;17.35;7.88;;;;;;;;;;4995439;28;92493;-66
2022/05/02 02:06:03;;;;;;;11.00;7.20;;;;;;;;;;4995285;28;94786;-66
2022/05/02 02:08:30;;;;;;;9.48;7.00;;;;;;;;;;4993707;28;94870;-66
2022/05/02 02:10:59;;;;;;;9.68;7.32;;;;;;;;;;4995614;28;96346;-65
2022/05/02 02:13:25;;;;;;;17.13;7.68;;;;;;;;;;4998424;28;94649;-67
2022/05/02 02:15:52;;;;;;;19.50;7.00;;;;;;;;;;4995014;28;93266;-66
2022/05/02 02:18:18;;;;;;;9.18;7.60;;;;;;;;;;4994821;28;94300;-66
2022/05/02 02:20:47;;;;;;;10.25;7.47;;;;;;;;;;5002187;28;92438;-65
2022/05/02 02:23:14;;;;;;;12.60;7.90;;;;;;;;;;5014941;28;93386;-66
2022/05/02 02:25:41;;;;;;;8.77;6.90;;;;;;;;;;5015617;28;92622;-66
2022/05/02 02:28:07;;;;;;;9.85;7.53;;;;;;;;;;5014914;28;92537;-66
2022/05/02 02:30:34;;;;;;;8.80;7.43;;;;;;;;;;5015210;28;94038;-66
2022/05/02 02:33:01;;;;;;;12.15;7.63;;;;;;;;;;5013037;28;95946;-66
2022/05/02 02:35:28;;;;;;;11.45;8.02;;;;;;;;;;5017663;28;92462;-66
2022/05/02 02:37:54;;;;;;;11.07;7.50;;;;;;;;;;5014161;28;94757;-66
2022/05/02 02:40:21;;;;;;;10.00;7.10;;;;;;;;;;5014939;28;92427;-66
2022/05/02 02:42:47;;;;;;;9.90;7.60;;;;;;;;;;5014996;28;92946;-65
2022/05/02 02:45:13;;;;;;;14.43;8.43;;;;;;;;;;5011501;28;93509;-66
2022/05/02 02:47:40;;;;;;;10.68;7.95;;;;;;;;;;4995083;28;92468;-66
2022/05/02 02:50:06;;;;;;;21.73;8.30;;;;;;;;;;4995478;28;94158;-66
2022/05/02 02:52:33;;;;;;;13.65;7.57;;;;;;;;;;4994475;28;92397;-66
2022/05/02 02:54:59;;;;;;;9.95;7.40;;;;;;;;;;4993518;28;92642;-66
2022/05/02 02:57:25;;;;;;;9.35;7.07;;;;;;;;;;4996211;28;94791;-65
2022/05/02 02:59:51;;;;;;;17.77;7.60;;;;;;;;;;4994787;28;92480;-66
2022/05/02 03:02:18;;;;;;;14.38;7.45;;;;;;;;;;4994823;28;95339;-65
2022/05/02 03:07:30;;;;;;;10.35;7.80;;;;;;;;;;4994642;28;92445;-65
2022/05/02 03:09:57;;;;;;;12.95;7.82;;;;;;;;;;4994506;28;92909;-66
2022/05/02 03:12:24;;;;;;;9.68;7.70;;;;;;;;;;4994309;28;92589;-66
2022/05/02 03:14:50;;;;;;;13.68;7.93;;;;;;;;;;4995169;28;92091;-65
2022/05/02 03:17:17;;;;;;;9.90;8.02;;;;;;;;;;4994436;28;92380;-66
2022/05/02 03:19:43;;;;;;;9.23;7.65;;;;;;;;;;4997070;28;93444;-66
2022/05/02 03:22:09;;;;;;;10.15;7.25;;;;;;;;;;4992761;28;94775;-66
2022/05/02 03:24:35;;;;;;;9.52;7.68;;;;;;;;;;4979069;28;93435;-66
2022/05/02 03:27:02;;;;;;;11.02;8.13;;;;;;;;;;4974123;28;92466;-66
2022/05/02 03:29:29;;;;;;;15.55;7.47;;;;;;;;;;4974351;28;93204;-66
2022/05/02 03:31:55;;;;;;;11.10;8.10;;;;;;;;;;4974231;28;93330;-66
2022/05/02 03:34:21;;;;;;;10.13;7.35;;;;;;;;;;4974600;28;92440;-65
2022/05/02 03:36:48;;;;;;;9.90;7.72;;;;;;;;;;4974001;28;92966;-65
2022/05/02 03:39:14;;;;;;;9.13;8.00;;;;;;;;;;4974486;28;91903;-66
2022/05/02 03:41:40;;;;;;;11.38;7.60;;;;;;;;;;4977757;28;92435;-66
2022/05/02 03:44:06;;;;;;;12.45;7.45;;;;;;;;;;4974497;28;94008;-66
2022/05/02 03:46:33;;;;;;;11.20;7.53;;;;;;;;;;4986271;28;94879;-66
2022/05/02 03:49:00;;;;;;;8.57;7.28;;;;;;;;;;4994570;28;95636;-66
2022/05/02 03:51:26;;;;;;;8.60;7.32;;;;;;;;;;4994056;28;93487;-67
2022/05/02 03:53:53;;;;;;;14.00;7.28;;;;;;;;;;4993651;28;92498;-66
2022/05/02 03:56:19;;;;;;;11.18;7.78;;;;;;;;;;4993439;28;93604;-66
2022/05/02 03:58:45;;;;;;;12.35;7.93;;;;;;;;;;4993893;28;94410;-67
2022/05/02 04:01:11;;;;;;;10.25;7.90;;;;;;;;;;4997167;28;92428;-66
2022/05/02 04:03:38;;;;;;;13.27;8.10;;;;;;;;;;4994444;28;93668;-66
2022/05/02 04:06:04;;;;;;;9.60;7.88;;;;;;;;;;4993599;28;92525;-65
2022/05/02 04:08:31;;;;;;;18.00;8.40;;;;;;;;;;4993811;28;93249;-65
2022/05/02 04:10:57;;;;;;;9.52;8.45;;;;;;;;;;4991796;28;95888;-66
2022/05/02 04:13:23;;;;;;;10.93;7.93;;;;;;;;;;4994988;28;92401;-66
2022/05/02 04:15:49;;;;;;;12.35;8.25;;;;;;;;;;4997201;28;93838;-66
2022/05/02 04:18:16;;;;;;;10.88;8.38;;;;;;;;;;4997190;28;96060;-66
2022/05/02 04:20:43;;;;;;;12.65;7.88;;;;;;;;;;5003463;28;92469;-66
2022/05/02 04:23:09;;;;;;;11.10;7.90;;;;;;;;;;5019964;28;93089;-66
2022/05/02 04:25:36;;;;;;;12.20;8.50;;;;;;;;;;5017318;28;92493;-66
2022/05/02 04:28:02;;;;;;;12.25;8.00;;;;;;;;;;5017532;28;93509;-66
2022/05/02 04:30:29;;;;;;;11.43;8.07;;;;;;;;;;5016524;28;93276;-65
2022/05/02 04:32:55;;;;;;;12.82;8.00;;;;;;;;;;5016991;28;92857;-66
2022/05/02 04:35:21;;;;;;;11.63;8.00;;;;;;;;;;5015588;28;94840;-66
2022/05/02 04:37:48;;;;;;;11.55;8.23;;;;;;;;;;5016130;28;93235;-66
2022/05/02 04:40:14;;;;;;;10.23;8.13;;;;;;;;;;5016728;28;92429;-66
2022/05/02 04:42:40;;;;;;;13.70;9.15;;;;;;;;;;5017153;28;94337;-66
2022/05/02 04:45:07;;;;;;;20.20;9.30;;;;;;;;;;5017980;28;94201;-66
2022/05/02 04:47:33;;;;;;;17.17;9.40;;;;;;;;;;4996886;28;94269;-66
2022/05/02 04:50:02;;;;;;;16.70;8.45;;;;;;;;;;4996741;28;94530;-66
2022/05/02 04:52:29;;;;;;;12.50;9.48;;;;;;;;;;4996943;28;91667;-66
2022/05/02 04:54:55;;;;;;;18.38;10.40;;;;;;;;;;4996802;28;92883;-66
2022/05/02 04:57:21;;;;;;;15.32;10.05;;;;;;;;;;4995953;28;93484;-66
2022/05/02 04:59:47;;;;;;;21.90;11.00;;;;;;;;;;4994015;28;94911;-66
2022/05/02 05:02:14;;;;;;;17.90;10.88;;;;;;;;;;4996015;28;97050;-66
2022/05/02 05:04:40;;;;;;;21.75;9.55;;;;;;;;;;4995820;28;94220;-66
2022/05/02 05:07:07;;;;;;;12.65;9.30;;;;;;;;;;4999476;28;92388;-66
2022/05/02 05:09:33;;;;;;;16.73;8.80;;;;;;;;;;4996119;28;93094;-66
2022/05/02 05:12:05;;;;;;;18.27;10.18;;;;;;;;;;4996360;28;92436;-66
2022/05/02 05:17:29;;;;;;;13.02;8.55;;;;;;;;;;4996526;28;92690;-65
2022/05/02 05:20:04;;;;;;;15.73;9.48;;;;;;;;;;4996496;28;92803;-65
2022/05/02 05:22:40;;;;;;;19.75;8.85;;;;;;;;;;5016173;28;94232;-65
2022/05/02 05:25:18;;;;;;;11.63;9.40;;;;;;;;;;5014151;28;96684;-65
2022/05/02 05:27:55;;;;;;;11.80;9.13;;;;;;;;;;5016325;28;92549;-65
2022/05/02 05:30:21;;;;;;;14.77;9.82;;;;;;;;;;5018840;28;93756;-65
2022/05/02 05:33:06;;;;;;;12.23;8.77;;;;;;;;;;5015900;28;92398;-66
2022/05/02 05:35:40;;;;;;;12.05;9.27;;;;;;;;;;5015969;28;93381;-66
2022/05/02 05:38:10;;;;;;;15.00;9.50;;;;;;;;;;5014018;28;93556;-65
2022/05/02 05:40:36;;;;;;;16.60;9.30;;;;;;;;;;5015601;28;92434;-65
2022/05/02 05:43:04;;;;;;;13.23;9.60;;;;;;;;;;5016538;28;94177;-66
2022/05/02 05:45:42;;;;;;;18.23;9.40;;;;;;;;;;5010477;28;93353;-66
2022/05/02 05:48:14;;;;;;;14.32;9.27;;;;;;;;;;4995903;28;92457;-66
2022/05/02 05:50:42;;;;;;;11.77;9.25;;;;;;;;;;4994333;28;94973;-67
2022/05/02 05:53:23;;;;;;;12.80;9.38;;;;;;;;;;4998608;28;92364;-66
2022/05/02 05:55:50;;;;;;;16.80;9.77;;;;;;;;;;4995685;28;93208;-66
2022/05/02 05:58:35;;;;;;;13.82;10.55;;;;;;;;;;4995812;28;94659;-67
2022/05/02 06:01:11;;;;;;;18.17;10.65;;;;;;;;;;4995126;28;92447;-66
2022/05/02 06:03:47;;;;;;;15.57;10.68;;;;;;;;;;4995175;28;94183;-66
2022/05/02 06:06:15;;;;;;;13.50;10.85;;;;;;;;;;4994669;28;94485;-67
2022/05/02 06:08:43;;;;;;;21.27;10.90;;;;;;;;;;4995365;28;91675;-67
2022/05/02 06:11:11;;;;;;;18.45;11.10;;;;;;;;;;4994619;28;92342;-67
2022/05/02 06:13:38;;;;;;;19.88;11.98;;;;;;;;;;4997890;28;94533;-67
2022/05/02 06:19:09;;;;;;;16.65;11.82;;;;;;;;;;4994494;28;93111;-66
2022/05/02 06:21:35;;;;;;;23.90;13.18;;;;;;;;;;5008287;28;92549;-66
2022/05/02 06:24:04;;;;;;;20.00;11.93;;;;;;;;;;5014853;28;92358;-67
2022/05/02 06:26:30;;;;;;;21.02;12.05;;;;;;;;;;5014582;28;94821;-67
2022/05/02 06:28:56;;;;;;;19.40;12.27;;;;;;;;;;5014907;28;92733;-67
2022/05/02 06:31:25;;;;;;;16.88;11.50;;;;;;;;;;5014329;28;93135;-66
2022/05/02 06:33:51;;;;;;;21.27;12.00;;;;;;;;;;5015073;28;92486;-66
2022/05/02 06:36:24;;;;;;;15.52;11.45;;;;;;;;;;5016428;28;92462;-66
2022/05/02 06:39:05;;;;;;;16.23;12.00;;;;;;;;;;5014029;28;93393;-66
2022/05/02 06:41:43;;;;;;;17.40;12.02;;;;;;;;;;5012500;28;95212;-66
2022/05/02 06:44:28;;;;;;;18.27;11.88;;;;;;;;;;5014155;28;95358;-67
2022/05/02 06:47:01;;;;;;;14.27;10.98;;;;;;;;;;4997068;28;93556;-66
2022/05/02 06:49:31;;;;;;;22.00;11.75;;;;;;;;;;4994215;28;92540;-65
2022/05/02 06:51:58;;;;;;;15.15;11.55;;;;;;;;;;4994046;28;93526;-66
2022/05/02 06:54:33;;;;;;;19.98;11.38;;;;;;;;;;4993891;28;93614;-66
2022/05/02 06:57:02;;;;;;;20.05;11.80;;;;;;;;;;4994045;28;92457;-66
2022/05/02 06:59:33;;;;;;;17.45;11.98;;;;;;;;;;4997226;28;93357;-66
2022/05/02 07:02:12;;;;;;;17.63;12.35;;;;;;;;;;4993947;28;92436;-66
2022/05/02 07:04:49;;;;;;;20.20;11.90;;;;;;;;;;4994230;28;92377;-66
2022/05/02 07:07:35;;;;;;;14.07;11.48;;;;;;;;;;4992028;28;95788;-67
2022/05/02 07:10:03;;;;;;;14.75;11.43;;;;;;;;;;4994040;28;92785;-66
2022/05/02 07:12:31;;;;;;;18.35;10.50;;;;;;;;;;4993592;28;93509;-66
2022/05/02 07:15:02;;;;;;;15.30;11.35;;;;;;;;;;4993787;28;93475;-67
2022/05/02 07:17:28;;;;;;;;;;;;;;;;;;4994491;28;92627;-66
2022/05/02 07:20:07;;;;;;;17.13;11.18;;;;;;;;;;4995451;28;123592;-66
2022/05/02 07:22:37;;;;;;;21.25;12.48;;;;;;;;;;4976758;28;93523;-66
2022/05/02 07:25:03;;;;;;;;;;;;;;;;;;4975140;28;92511;-66
2022/05/02 07:27:36;;;;;;;17.55;11.57;;;;;;;;;;4975285;28;124278;-66
2022/05/02 07:30:02;;;;;;;17.55;10.57;;;;;;;;;;4974302;28;92433;-66
2022/05/02 07:32:29;;;;;;;16.40;11.75;;;;;;;;;;4972030;28;95366;-67
2022/05/02 07:34:56;;;;;;;20.33;11.55;;;;;;;;;;4973472;28;93595;-67
2022/05/02 07:37:23;;;;;;;22.23;11.43;;;;;;;;;;4973256;28;92637;-66
2022/05/02 07:39:49;;;;;;;19.75;11.60;;;;;;;;;;4988799;28;93318;-67
2022/05/02 07:42:18;;;;;;;21.02;12.65;;;;;;;;;;4973826;28;92400;-67
2022/05/02 07:44:46;;;;;;;22.65;11.27;;;;;;;;;;4976899;28;92403;-66
2022/05/02 07:47:15;;;;;;;15.77;11.27;;;;;;;;;;4992627;28;93631;-66
2022/05/02 07:49:45;;;;;;;20.33;10.93;;;;;;;;;;4997232;28;91685;-67
2022/05/02 07:52:12;;;;;;;;;;;;;;;;;;4997721;28;93628;-66
2022/05/02 07:54:40;;;;;;;19.42;10.88;;;;;;;;;;4998307;28;124666;-66
2022/05/02 07:57:07;;;;;;;19.33;10.75;;;;;;;;;;4995821;28;95186;-66
2022/05/02 07:59:35;;;;;;;12.65;10.57;;;;;;;;;;4996674;28;95805;-66
2022/05/02 08:02:02;;;;;;;20.88;11.90;;;;;;;;;;4996587;28;93438;-67
2022/05/02 08:04:29;;;;;;;14.13;10.32;;;;;;;;;;4996645;28;92436;-67
2022/05/02 08:07:01;;;;;;;18.05;11.35;;;;;;;;;;4999537;28;92521;-67
2022/05/02 08:09:33;;;;;;;15.95;10.90;;;;;;;;;;4996952;28;92489;-66
2022/05/02 08:12:06;;;;;;;31.75;12.25;;;;;;;;;;4996452;28;93234;-66
2022/05/02 08:14:37;;;;;;;20.63;11.68;;;;;;;;;;4997006;28;92596;-67
2022/05/02 08:17:09;;;;;;;15.95;10.77;;;;;;;;;;4996645;28;92477;-66
2022/05/02 08:19:36;;;;;;;17.05;11.10;;;;;;;;;;4996342;28;92395;-67
2022/05/02 08:27:44;;;;;;;17.90;9.18;;;;;;;;;;5019866;28;93281;-66
2022/05/02 08:30:20;;;;;;;15.80;9.68;;;;;;;;;;5017235;28;92330;-67
2022/05/02 08:33:06;;;;;;;18.65;9.98;;;;;;;;;;5017093;28;93188;-66
2022/05/02 08:35:50;;;;;;;15.13;8.23;;;;;;;;;;5016141;28;93648;-66
2022/05/02 08:38:26;;;;;;;13.30;7.88;;;;;;;;;;5017138;28;92400;-66
2022/05/02 08:41:18;;;;;;;13.52;8.13;;;;;;;;;;5017616;28;94258;-66
2022/05/02 08:44:03;;;;;;;10.57;7.20;;;;;;;;;;5016616;28;94802;-66
2022/05/02 08:46:44;;;;;;;12.10;7.60;;;;;;;;;;5003547;28;92394;-66
2022/05/02 08:49:38;;;;;;;11.07;7.55;;;;;;;;;;4993864;28;94886;-66
2022/05/02 08:52:22;;;;;;;18.23;8.07;;;;;;;;;;4999323;28;93377;-67
2022/05/02 08:55:07;;;;;;;13.25;8.70;;;;;;;;;;4996918;28;93331;-67
2022/05/02 08:57:43;;;;;;;16.45;8.63;;;;;;;;;;4996552;28;93458;-67
2022/05/02 09:00:12;;;;;;;15.93;8.20;;;;;;;;;;4995952;28;92437;-67
2022/05/02 09:03:01;;;;;;;11.57;8.07;;;;;;;;;;4996461;28;92783;-66
2022/05/02 09:05:53;;;;;;;14.82;8.35;;;;;;;;;;4996533;28;93439;-66
2022/05/02 09:08:25;;;;;;;13.75;7.93;;;;;;;;;;4996694;28;92098;-66
2022/05/02 09:10:52;;;;;;;16.15;8.25;;;;;;;;;;4996454;28;92752;-66
2022/05/02 09:13:24;;;;;;;11.55;8.30;;;;;;;;;;4996268;28;93327;-67
2022/05/02 09:16:07;;;;;;;13.40;8.02;;;;;;;;;;4998498;28;94893;-67
2022/05/02 09:18:42;;;;;;;12.25;7.40;;;;;;;;;;4996343;28;94655;-67
2022/05/02 09:21:35;;;;;;;9.88;7.75;;;;;;;;;;5006832;28;92416;-67
2022/05/02 09:24:10;;;;;;;14.35;9.55;;;;;;;;;;5012706;28;94296;-66
2022/05/02 09:26:39;;;;;;;24.30;8.00;;;;;;;;;;5016384;28;93607;-66
2022/05/02 09:29:15;;;;;;;16.92;8.20;;;;;;;;;;5016346;28;92411;-67
2022/05/02 09:31:44;;;;;;;13.07;8.20;;;;;;;;;;5016203;28;92982;-66
2022/05/02 09:34:24;;;;;;;15.23;8.45;;;;;;;;;;5016601;28;92722;-66
2022/05/02 09:37:09;;;;;;;15.32;8.30;;;;;;;;;;5016057;28;92463;-66
2022/05/02 09:39:46;;;;;;;13.98;7.97;;;;;;;;;;5018905;28;93467;-66
2022/05/02 09:42:14;;;;;;;14.38;8.30;;;;;;;;;;5014409;28;94773;-66
2022/05/02 09:50:34;;;;;;;16.40;7.45;;;;;;;;;;4975685;28;92445;-66
2022/05/02 09:53:06;;;;;;;12.13;7.68;;;;;;;;;;4976034;28;94441;-66
2022/05/02 09:58:35;;;;;;;11.18;7.45;;;;;;;;;;4975856;28;92370;-66
2022/05/02 10:01:06;;;;;;;13.80;7.43;;;;;;;;;;4976302;28;93083;-66
2022/05/02 10:03:32;;;;;;;;;;;;;;;;;;4979211;28;93396;-66
2022/05/02 10:06:09;;;;;;;11.25;6.80;;;;;;;;;;4976629;28;124105;-66
2022/05/02 10:08:45;;;;;;;18.55;7.43;;;;;;;;;;4974065;28;95874;-66
2022/05/02 10:11:29;;;;;;;15.02;7.00;;;;;;;;;;4974821;28;92462;-67
2022/05/02 10:14:05;;;;;;;11.13;7.53;;;;;;;;;;4975824;28;93264;-66
2022/05/02 10:16:32;;;;;;;15.15;8.10;;;;;;;;;;4989026;28;93322;-66
2022/05/02 10:19:01;;;;;;;11.77;7.82;;;;;;;;;;4995377;28;92457;-66
2022/05/02 10:21:41;;;;;;;11.37;7.17;;;;;;;;;;5008299;28;93174;-66
2022/05/02 10:24:26;;;;;;;31.70;8.25;;;;;;;;;;5015309;28;93516;-66
2022/05/02 10:27:04;;;;;;;11.43;6.70;;;;;;;;;;5018791;28;91637;-66
2022/05/02 10:29:31;;;;;;;26.58;7.93;;;;;;;;;;5015384;28;93518;-66
2022/05/02 10:32:10;;;;;;;14.05;7.80;;;;;;;;;;5015547;28;92443;-66
2022/05/02 10:34:37;;;;;;;9.05;6.55;;;;;;;;;;5013610;28;94887;-66
2022/05/02 10:37:07;;;;;;;13.55;6.10;;;;;;;;;;5014859;28;93223;-66
2022/05/02 10:39:47;;;;;;;23.73;8.35;;;;;;;;;;5014768;28;92487;-66
2022/05/02 10:42:16;;;;;;;144.93;17.58;;;;;;;;;;5015008;28;93172;-66
2022/05/02 10:44:50;;;;;;;13.10;7.30;;;;;;;;;;5014023;28;93248;-66
2022/05/02 10:47:20;;;;;;;10.63;7.45;;;;;;;;;;4998573;28;92524;-67
2022/05/02 10:50:08;;;;;;;17.55;7.32;;;;;;;;;;4994504;28;92610;-67
2022/05/02 10:52:37;;;;;;;10.40;6.72;;;;;;;;;;4995502;28;92326;-66
2022/05/02 10:55:05;;;;;;;8.73;6.65;;;;;;;;;;4994630;28;92552;-67
2022/05/02 10:57:39;;;;;;;95.43;14.48;;;;;;;;;;5010012;28;92461;-66
2022/05/02 11:00:10;;;;;;;7.05;5.90;;;;;;;;;;4991168;28;94944;-67
2022/05/02 11:02:51;;;;;;;16.10;5.78;;;;;;;;;;4994793;28;95678;-67
2022/05/02 11:05:24;;;;;;;11.88;6.07;;;;;;;;;;4994709;28;94079;-68
2022/05/02 11:08:07;;;;;;;14.93;6.38;;;;;;;;;;4994820;28;92473;-66
2022/05/02 11:10:46;;;;;;;18.45;6.40;;;;;;;;;;4997594;28;93429;-67
2022/05/02 11:13:12;;;;;;;14.05;6.22;;;;;;;;;;4994905;28;92691;-67
2022/05/02 11:15:47;;;;;;;14.75;6.63;;;;;;;;;;4994559;28;93270;-67
2022/05/02 11:21:11;;;;;;;7.70;5.95;;;;;;;;;;5004564;28;92453;-67
2022/05/02 11:23:37;;;;;;;10.65;6.60;;;;;;;;;;5014662;28;93980;-67
2022/05/02 11:26:12;;;;;;;8.25;6.25;;;;;;;;;;5012588;28;95867;-67
2022/05/02 11:28:39;;;;;;;15.60;6.90;;;;;;;;;;5014625;28;92446;-67
2022/05/02 11:31:11;;;;;;;15.15;6.70;;;;;;;;;;5014821;28;93220;-67
2022/05/02 11:33:42;;;;;;;15.30;6.35;;;;;;;;;;5017443;28;92453;-67
2022/05/02 11:36:09;;;;;;;10.05;6.07;;;;;;;;;;5013995;28;93381;-67
2022/05/02 11:39:11;;;;;;;7.32;6.43;;;;;;;;;;5013942;28;93202;-67
2022/05/02 11:41:42;;;;;;;11.88;6.20;;;;;;;;;;4932949;28;92563;-68
2022/05/02 11:44:12;;;;;;;22.77;6.70;;;;;;;;;;4933564;28;93395;-67
2022/05/02 11:46:49;;;;;;;8.15;6.30;;;;;;;;;;4918783;28;93899;-65
2022/05/02 11:49:29;;;;;;;14.32;6.22;;;;;;;;;;4913741;28;92530;-65
2022/05/02 11:52:00;;;;;;;15.73;5.32;;;;;;;;;;4912315;28;95127;-66
2022/05/02 11:54:26;;;;;;;8.20;5.28;;;;;;;;;;4913520;28;93257;-65
2022/05/02 11:56:55;;;;;;;10.07;5.60;;;;;;;;;;4916395;28;92806;-65
2022/05/02 11:59:22;;;;;;;14.65;5.60;;;;;;;;;;4913594;28;94261;-65
2022/05/02 12:01:53;;;;;;;16.13;6.05;;;;;;;;;;4913016;28;92440;-67
2022/05/02 12:04:20;;;;;;;;;;;;;;;;;;4913728;28;93260;-67
2022/05/02 12:07:08;;;;;;;8.85;5.78;;;;;;;;;;4914054;28;124010;-68
2022/05/02 12:09:36;;;;;;;10.93;5.10;;;;;;;;;;4913774;28;91735;-67
2022/05/02 12:12:04;;;;;;;5.65;4.50;;;;;;;;;;4913579;28;93474;-65
2022/05/02 12:14:31;;;;;;;11.32;5.03;;;;;;;;;;4913689;28;92941;-65
2022/05/02 12:17:09;;;;;;;11.80;5.18;;;;;;;;;;4992567;28;94973;-65
2022/05/02 12:19:39;;;;;;;8.85;4.60;;;;;;;;;;4996425;28;94287;-65
2022/05/02 12:22:08;;;;;;;4.87;4.37;;;;;;;;;;5026839;28;92468;-65
2022/05/02 12:24:36;;;;;;;6.45;5.32;;;;;;;;;;5013273;28;92958;-65
2022/05/02 12:27:06;;;;;;;10.15;5.72;;;;;;;;;;5013776;28;94955;-65
2022/05/02 12:29:34;;;;;;;11.38;5.03;;;;;;;;;;5001708;28;92439;-65
2022/05/02 12:32:02;;;;;;;12.15;4.75;;;;;;;;;;4974053;28;93148;-65
2022/05/02 12:34:34;;;;;;;9.73;5.78;;;;;;;;;;4975960;28;93557;-65
2022/05/02 12:37:04;;;;;;;14.63;5.28;;;;;;;;;;4977234;28;92443;-66
2022/05/02 12:39:33;;;;;;;10.10;5.18;;;;;;;;;;4980040;28;93605;-65
2022/05/02 12:42:12;;;;;;;9.57;5.00;;;;;;;;;;4975653;28;95122;-65
2022/05/02 12:45:01;;;;;;;5.70;5.10;;;;;;;;;;4975692;28;95600;-65
2022/05/02 12:47:32;;;;;;;9.37;5.80;;;;;;;;;;4973860;28;93421;-65
2022/05/02 12:49:58;;;;;;;;;;;;;;;;;;4977790;28;92429;-65
2022/05/02 12:52:27;;;;;;;12.45;5.47;;;;;;;;;;4977925;28;123334;-65
2022/05/02 12:54:54;;;;;;;8.50;5.90;;;;;;;;;;4976758;28;93575;-65
2022/05/02 13:00:32;;;;;;;15.13;6.00;;;;;;;;;;4977286;28;93337;-65
2022/05/02 13:02:59;;;;;;;6.00;5.28;;;;;;;;;;4979980;28;93934;-64
2022/05/02 13:05:29;;;;;;;10.70;5.60;;;;;;;;;;4976734;28;93692;-65
2022/05/02 13:07:56;;;;;;;7.88;6.00;;;;;;;;;;4974773;28;94778;-65
2022/05/02 13:10:24;;;;;;;11.68;6.20;;;;;;;;;;4976648;28;92546;-65
2022/05/02 13:13:02;;;;;;;13.32;6.43;;;;;;;;;;4976778;28;93186;-65
2022/05/02 13:15:30;;;;;;;8.18;5.80;;;;;;;;;;4981275;28;93548;-65
2022/05/02 13:18:01;;;;;;;8.40;5.70;;;;;;;;;;4996832;28;92387;-65
2022/05/02 13:21:05;;;;;;;23.13;7.53;;;;;;;;;;5003372;28;93916;-65
2022/05/02 13:23:35;;;;;;;60.40;8.75;;;;;;;;;;5016030;28;93316;-65
2022/05/02 13:26:13;;;;;;;9.43;6.18;;;;;;;;;;5019867;28;91710;-65
2022/05/02 13:28:45;;;;;;;9.73;6.35;;;;;;;;;;5016444;28;93465;-65
2022/05/02 13:31:18;;;;;;;18.70;5.90;;;;;;;;;;5016311;28;92644;-65
2022/05/02 13:33:48;;;;;;;11.95;6.38;;;;;;;;;;5014601;28;95305;-65
2022/05/02 13:36:14;;;;;;;9.18;5.57;;;;;;;;;;5015544;28;92755;-65
2022/05/02 13:38:44;;;;;;;7.93;6.18;;;;;;;;;;5016375;28;92464;-65
2022/05/02 13:41:17;;;;;;;11.73;5.83;;;;;;;;;;5016438;28;94292;-65
2022/05/02 13:44:13;;;;;;;11.07;5.63;;;;;;;;;;5016105;28;96610;-65
2022/05/02 13:46:39;;;;;;;13.45;6.00;;;;;;;;;;5001320;28;92512;-65
2022/05/02 13:49:30;;;;;;;10.55;6.15;;;;;;;;;;4998870;28;92457;-67
2022/05/02 13:52:08;;;;;;;10.63;6.35;;;;;;;;;;4996656;28;91683;-66
2022/05/02 13:54:34;;;;;;;10.07;6.22;;;;;;;;;;4996196;28;93517;-66
2022/05/02 13:57:07;;;;;;;8.85;6.45;;;;;;;;;;4995765;28;93600;-67
2022/05/02 13:59:44;;;;;;;11.50;5.50;;;;;;;;;;4994366;28;94853;-66
2022/05/02 14:02:34;;;;;;;9.63;6.38;;;;;;;;;;4995824;28;96602;-67
2022/05/02 14:05:09;;;;;;;10.65;6.47;;;;;;;;;;4995498;28;93494;-66
2022/05/02 14:07:38;;;;;;;9.00;6.45;;;;;;;;;;4995431;28;92394;-66
2022/05/02 14:10:06;;;;;;;10.27;6.07;;;;;;;;;;4995480;28;93505;-67
2022/05/02 14:12:38;;;;;;;7.25;6.47;;;;;;;;;;4998353;28;92956;-67
2022/05/02 14:15:09;;;;;;;23.00;6.93;;;;;;;;;;4995448;28;94113;-67
2022/05/02 14:17:42;;;;;;;15.23;6.85;;;;;;;;;;4995690;28;91871;-67
2022/05/02 14:20:08;;;;;;;13.45;6.65;;;;;;;;;;4997245;28;92473;-67
2022/05/02 14:22:37;;;;;;;9.38;5.97;;;;;;;;;;5015336;28;94183;-66
2022/05/02 14:25:06;;;;;;;7.22;5.80;;;;;;;;;;5013713;28;95725;-67
2022/05/02 14:27:55;;;;;;;25.93;7.43;;;;;;;;;;5015583;28;92485;-67
2022/05/02 14:30:26;;;;;;;10.20;6.40;;;;;;;;;;5015751;28;94560;-65
2022/05/02 14:32:54;;;;;;;11.45;6.40;;;;;;;;;;5015431;28;94497;-67
2022/05/02 14:35:21;;;;;;;13.82;6.32;;;;;;;;;;5017776;28;93408;-66
2022/05/02 14:37:48;;;;;;;8.32;5.78;;;;;;;;;;5014581;28;93481;-67
2022/05/02 14:40:15;;;;;;;32.92;7.90;;;;;;;;;;5015019;27;92494;-67
2022/05/02 14:42:43;;;;;;;13.52;6.20;;;;;;;;;;5015716;28;91898;-67
2022/05/02 14:45:10;;;;;;;14.02;5.78;;;;;;;;;;5012956;28;93769;-66
2022/05/02 14:47:37;;;;;;;12.80;6.90;;;;;;;;;;4995068;28;92446;-67
2022/05/02 14:50:04;;;;;;;10.75;6.35;;;;;;;;;;4993638;28;95025;-66
2022/05/02 14:52:35;;;;;;;12.60;5.70;;;;;;;;;;4994546;28;93468;-67
2022/05/02 14:55:02;;;;;;;9.90;6.38;;;;;;;;;;4998274;28;92299;-67
2022/05/02 14:57:29;;;;;;;17.05;5.95;;;;;;;;;;4994422;28;94699;-67
2022/05/02 14:59:58;;;;;;;10.75;5.88;;;;;;;;;;4995300;28;92387;-66
2022/05/02 15:02:27;;;;;;;12.07;6.50;;;;;;;;;;4994551;28;93321;-66
2022/05/02 15:05:00;;;;;;;13.25;6.00;;;;;;;;;;4994415;28;93290;-66
2022/05/02 15:07:30;;;;;;;14.63;5.95;;;;;;;;;;4995232;28;91692;-67
2022/05/02 15:10:14;;;;;;;8.15;5.53;;;;;;;;;;5009976;28;92515;-67
2022/05/02 15:12:51;;;;;;;8.35;5.30;;;;;;;;;;5009775;28;93528;-67
2022/05/02 15:15:25;;;;;;;12.05;5.63;;;;;;;;;;4993158;28;94769;-67
2022/05/02 15:18:10;;;;;;;9.20;5.45;;;;;;;;;;4996491;28;96473;-67
2022/05/02 15:20:39;;;;;;;8.75;5.43;;;;;;;;;;5000303;28;92460;-67
2022/05/02 15:23:07;;;;;;;8.03;6.03;;;;;;;;;;5015016;28;96077;-67